Time;durP1;ratioP1;P1;durP2;ratioP2;P2;SDS_P1;SDS_P2;PMS_P1;PMS_P2;Temp;Humidity;BMP_temperature;BMP_pressure;BME280_temperature;BME280_humidity;BME280_pressure;Samples;Min_cycle;Max_cycle;Signal;HPM_P1;HPM_P2
2022/03/16 00:00:30;;;;;;;63.40;26.23;;;;;;;;;;4933859;28;20195;-60
2022/03/16 00:02:58;;;;;;;77.03;28.02;;;;;;;;;;4968005;28;20053;-60
2022/03/16 00:05:28;;;;;;;55.22;23.45;;;;;;;;;;4969545;28;20057;-59
2022/03/16 00:07:54;;;;;;;59.25;24.02;;;;;;;;;;4947037;28;20027;-58
2022/03/16 00:10:22;;;;;;;67.28;24.00;;;;;;;;;;4934646;28;21953;-59
2022/03/16 00:12:50;;;;;;;65.43;23.85;;;;;;;;;;4980611;28;20268;-59
2022/03/16 00:15:15;;;;;;;56.25;24.70;;;;;;;;;;4947999;28;20036;-60
2022/03/16 00:17:40;;;;;;;63.13;24.83;;;;;;;;;;4966851;28;20034;-59
2022/03/16 00:20:08;;;;;;;62.35;23.70;;;;;;;;;;4979228;28;20065;-62
2022/03/16 00:22:36;;;;;;;66.05;23.92;;;;;;;;;;4965131;28;20026;-60
2022/03/16 00:25:04;;;;;;;71.90;25.65;;;;;;;;;;4968189;28;20069;-59
2022/03/16 00:27:30;;;;;;;64.18;25.55;;;;;;;;;;4977972;28;20035;-60
2022/03/16 00:29:58;;;;;;;67.40;24.40;;;;;;;;;;4951089;28;20046;-58
2022/03/16 00:32:23;;;;;;;67.68;26.33;;;;;;;;;;4951524;28;20049;-59
2022/03/16 00:34:52;;;;;;;62.65;25.23;;;;;;;;;;4968994;28;20038;-59
2022/03/16 00:37:22;;;;;;;71.00;25.10;;;;;;;;;;4963788;28;20056;-59
2022/03/16 00:39:50;;;;;;;72.95;26.00;;;;;;;;;;4980986;28;20038;-61
2022/03/16 00:42:23;;;;;;;70.22;25.98;;;;;;;;;;4968895;28;20038;-59
2022/03/16 00:44:51;;;;;;;72.93;26.02;;;;;;;;;;4967694;28;20058;-59
2022/03/16 00:47:18;;;;;;;62.58;24.90;;;;;;;;;;4961882;28;20034;-59
2022/03/16 00:49:46;;;;;;;66.85;25.25;;;;;;;;;;4967561;28;21662;-60
2022/03/16 00:52:12;;;;;;;80.65;27.33;;;;;;;;;;4961539;28;20842;-60
2022/03/16 00:54:37;;;;;;;69.60;26.60;;;;;;;;;;4978164;28;20034;-61
2022/03/16 00:57:05;;;;;;;70.47;23.33;;;;;;;;;;4968138;28;20632;-61
2022/03/16 00:59:30;;;;;;;56.85;23.80;;;;;;;;;;4958388;28;20066;-60
2022/03/16 01:01:56;;;;;;;76.00;27.20;;;;;;;;;;4965772;28;20050;-61
2022/03/16 01:04:23;;;;;;;64.93;25.17;;;;;;;;;;4975664;28;20089;-59
2022/03/16 01:06:49;;;;;;;75.35;27.05;;;;;;;;;;4980542;28;20038;-58
2022/03/16 01:09:17;;;;;;;64.90;26.33;;;;;;;;;;4981121;28;20053;-61
2022/03/16 01:11:42;;;;;;;67.57;26.25;;;;;;;;;;4967948;28;20034;-61
2022/03/16 01:14:10;;;;;;;63.95;25.30;;;;;;;;;;4965476;28;20049;-61
2022/03/16 01:16:39;;;;;;;67.80;24.65;;;;;;;;;;4976345;28;20103;-61
2022/03/16 01:19:05;;;;;;;63.97;23.42;;;;;;;;;;4966312;28;20034;-61
2022/03/16 01:21:30;;;;;;;68.32;25.33;;;;;;;;;;4961075;28;20061;-60
2022/03/16 01:23:56;;;;;;;58.30;24.48;;;;;;;;;;4964598;28;20125;-61
2022/03/16 01:26:24;;;;;;;63.53;23.90;;;;;;;;;;4964958;28;20030;-61
2022/03/16 01:28:49;;;;;;;58.60;24.13;;;;;;;;;;4963337;28;20037;-61
2022/03/16 01:31:17;;;;;;;66.40;24.73;;;;;;;;;;4964833;28;21138;-60
2022/03/16 01:33:48;;;;;;;69.18;24.77;;;;;;;;;;4982731;28;20220;-60
2022/03/16 01:36:15;;;;;;;75.75;25.38;;;;;;;;;;4976153;28;20693;-60
2022/03/16 01:38:41;;;;;;;73.80;25.25;;;;;;;;;;4965311;28;20637;-60
2022/03/16 01:41:07;;;;;;;55.20;23.15;;;;;;;;;;4964485;28;20031;-60
2022/03/16 01:43:34;;;;;;;64.13;22.23;;;;;;;;;;4976330;28;20084;-59
2022/03/16 01:46:00;;;;;;;62.97;23.00;;;;;;;;;;4964679;28;20117;-59
2022/03/16 01:48:25;;;;;;;67.40;24.13;;;;;;;;;;4966968;28;20038;-59
2022/03/16 01:50:55;;;;;;;56.80;22.63;;;;;;;;;;4967455;28;20394;-59
2022/03/16 01:53:21;;;;;;;62.70;23.10;;;;;;;;;;4964982;28;20482;-59
2022/03/16 01:55:48;;;;;;;70.25;23.90;;;;;;;;;;4964682;28;20058;-61
2022/03/16 01:58:14;;;;;;;56.58;23.02;;;;;;;;;;4967328;28;20033;-62
2022/03/16 02:00:42;;;;;;;66.82;22.92;;;;;;;;;;4964336;28;20026;-61
2022/03/16 02:03:12;;;;;;;61.15;22.42;;;;;;;;;;4975023;28;20031;-60
2022/03/16 02:05:38;;;;;;;58.53;23.55;;;;;;;;;;4980985;28;20061;-60
2022/03/16 02:08:08;;;;;;;64.90;24.95;;;;;;;;;;4966226;28;20026;-60
2022/03/16 02:10:36;;;;;;;70.88;23.00;;;;;;;;;;4966003;28;20180;-58
2022/03/16 02:13:05;;;;;;;58.28;21.27;;;;;;;;;;4965607;28;21031;-60
2022/03/16 02:15:32;;;;;;;61.55;22.38;;;;;;;;;;4961071;28;20120;-61
2022/03/16 02:17:58;;;;;;;65.22;23.77;;;;;;;;;;4979187;28;20038;-60
2022/03/16 02:20:24;;;;;;;69.65;25.75;;;;;;;;;;4974825;28;20964;-58
2022/03/16 02:22:59;;;;;;;57.70;23.48;;;;;;;;;;4965340;28;20467;-61
2022/03/16 02:25:27;;;;;;;58.45;22.38;;;;;;;;;;4966302;28;20059;-60
2022/03/16 02:27:54;;;;;;;60.33;19.73;;;;;;;;;;4965196;28;20148;-60
2022/03/16 02:30:21;;;;;;;58.70;19.77;;;;;;;;;;4980251;28;20030;-59
2022/03/16 02:32:49;;;;;;;60.67;21.70;;;;;;;;;;4965397;28;20042;-60
2022/03/16 02:35:17;;;;;;;51.13;18.98;;;;;;;;;;4965437;28;20049;-60
2022/03/16 02:37:45;;;;;;;63.88;22.70;;;;;;;;;;4948484;28;20133;-60
2022/03/16 02:40:16;;;;;;;61.03;24.55;;;;;;;;;;4964146;28;20037;-60
2022/03/16 02:42:44;;;;;;;69.78;25.27;;;;;;;;;;4962596;28;20049;-61
2022/03/16 02:45:09;;;;;;;58.38;22.70;;;;;;;;;;4979753;28;20115;-59
2022/03/16 02:47:37;;;;;;;64.95;23.73;;;;;;;;;;4959660;28;20030;-59
2022/03/16 02:50:05;;;;;;;59.08;25.08;;;;;;;;;;4982050;28;20051;-60
2022/03/16 02:52:30;;;;;;;62.08;21.92;;;;;;;;;;4965825;28;20046;-59
2022/03/16 02:54:55;;;;;;;59.67;24.40;;;;;;;;;;4966542;28;20620;-61
2022/03/16 02:57:23;;;;;;;68.28;25.08;;;;;;;;;;4964003;28;20118;-60
2022/03/16 02:59:49;;;;;;;61.17;23.20;;;;;;;;;;4978778;28;20044;-61
2022/03/16 03:02:14;;;;;;;59.20;22.60;;;;;;;;;;4964175;28;20198;-60
2022/03/16 03:04:40;;;;;;;50.00;20.38;;;;;;;;;;4962100;28;20058;-60
2022/03/16 03:07:05;;;;;;;65.85;23.92;;;;;;;;;;4965187;28;20081;-60
2022/03/16 03:09:33;;;;;;;64.85;23.55;;;;;;;;;;4966329;28;20034;-60
2022/03/16 03:12:01;;;;;;;61.95;23.75;;;;;;;;;;4979129;28;20486;-59
2022/03/16 03:14:29;;;;;;;64.90;26.02;;;;;;;;;;4963315;28;20030;-61
2022/03/16 03:16:59;;;;;;;67.18;23.15;;;;;;;;;;4958412;28;20915;-60
2022/03/16 03:19:25;;;;;;;59.30;23.85;;;;;;;;;;4964475;28;20029;-60
2022/03/16 03:21:53;;;;;;;68.63;23.25;;;;;;;;;;4964354;28;21531;-60
2022/03/16 03:24:21;;;;;;;70.70;25.30;;;;;;;;;;4959682;28;20092;-60
2022/03/16 03:26:49;;;;;;;68.55;24.02;;;;;;;;;;4978541;28;20030;-60
2022/03/16 03:29:17;;;;;;;59.22;24.58;;;;;;;;;;4978694;28;20042;-59
2022/03/16 03:31:42;;;;;;;61.92;24.83;;;;;;;;;;4959412;28;20088;-61
2022/03/16 03:34:08;;;;;;;61.80;23.08;;;;;;;;;;4978404;28;21003;-59
2022/03/16 03:36:34;;;;;;;52.15;21.83;;;;;;;;;;4942002;28;20133;-60
2022/03/16 03:38:59;;;;;;;66.03;23.58;;;;;;;;;;4962825;28;20100;-60
2022/03/16 03:41:27;;;;;;;64.75;24.45;;;;;;;;;;4962824;28;20562;-61
2022/03/16 03:43:52;;;;;;;66.18;23.90;;;;;;;;;;4962141;28;20041;-68
2022/03/16 03:46:20;;;;;;;59.70;23.70;;;;;;;;;;4960280;28;20022;-62
2022/03/16 03:48:46;;;;;;;61.50;24.13;;;;;;;;;;4964098;28;20065;-60
2022/03/16 03:51:11;;;;;;;52.78;21.98;;;;;;;;;;4959124;28;20128;-61
2022/03/16 03:53:37;;;;;;;57.22;22.48;;;;;;;;;;4977543;28;20676;-60
2022/03/16 03:56:05;;;;;;;51.50;20.65;;;;;;;;;;4965350;28;20034;-61
2022/03/16 03:58:30;;;;;;;63.08;20.80;;;;;;;;;;4965419;28;20049;-61
2022/03/16 04:01:00;;;;;;;65.38;23.92;;;;;;;;;;4958324;28;20034;-60
2022/03/16 04:03:29;;;;;;;59.13;22.80;;;;;;;;;;4964854;28;20438;-60
2022/03/16 04:05:56;;;;;;;63.92;23.50;;;;;;;;;;4963285;28;20093;-59
2022/03/16 04:08:22;;;;;;;57.38;23.17;;;;;;;;;;4964808;28;20096;-59
2022/03/16 04:10:47;;;;;;;61.45;23.63;;;;;;;;;;4964559;28;21433;-60
2022/03/16 04:13:13;;;;;;;62.55;24.42;;;;;;;;;;4958672;28;20526;-59
2022/03/16 04:15:38;;;;;;;61.53;23.23;;;;;;;;;;4961988;28;20039;-60
2022/03/16 04:18:06;;;;;;;61.60;22.27;;;;;;;;;;4964589;28;20066;-59
2022/03/16 04:20:34;;;;;;;60.55;23.02;;;;;;;;;;4964934;28;20922;-61
2022/03/16 04:23:02;;;;;;;57.42;23.52;;;;;;;;;;4964864;28;20837;-59
2022/03/16 04:25:30;;;;;;;56.03;23.38;;;;;;;;;;4964481;28;20063;-60
2022/03/16 04:27:55;;;;;;;61.75;22.27;;;;;;;;;;4964545;28;20126;-59
2022/03/16 04:30:20;;;;;;;58.13;22.00;;;;;;;;;;4962543;28;20564;-59
2022/03/16 04:32:51;;;;;;;58.03;21.83;;;;;;;;;;4965284;28;22188;-59
2022/03/16 04:35:20;;;;;;;67.45;26.02;;;;;;;;;;4960557;28;20038;-60
2022/03/16 04:37:48;;;;;;;60.95;25.05;;;;;;;;;;4964435;28;20446;-60
2022/03/16 04:40:13;;;;;;;64.60;24.40;;;;;;;;;;4976329;28;20035;-59
2022/03/16 04:42:39;;;;;;;69.82;26.08;;;;;;;;;;4982056;28;20030;-60
2022/03/16 04:45:05;;;;;;;70.35;26.58;;;;;;;;;;4968184;28;20089;-60
2022/03/16 04:47:31;;;;;;;68.65;25.00;;;;;;;;;;4970209;28;20080;-59
2022/03/16 04:49:57;;;;;;;63.88;24.35;;;;;;;;;;4951614;28;20482;-60
2022/03/16 04:52:25;;;;;;;60.35;24.27;;;;;;;;;;4984600;28;20091;-60
2022/03/16 04:54:53;;;;;;;64.10;23.75;;;;;;;;;;4980388;28;20038;-60
2022/03/16 04:57:23;;;;;;;62.50;23.13;;;;;;;;;;4970875;28;20026;-60
2022/03/16 04:59:51;;;;;;;67.38;25.13;;;;;;;;;;4951299;28;20062;-60
2022/03/16 05:02:19;;;;;;;61.58;23.00;;;;;;;;;;4962638;28;21689;-59
2022/03/16 05:04:47;;;;;;;62.10;22.55;;;;;;;;;;4980205;28;20425;-60
2022/03/16 05:07:17;;;;;;;62.33;22.67;;;;;;;;;;4971390;28;20034;-60
2022/03/16 05:09:43;;;;;;;60.63;24.85;;;;;;;;;;4952704;28;20031;-60
2022/03/16 05:12:13;;;;;;;64.38;25.23;;;;;;;;;;4954307;28;20054;-60
2022/03/16 05:14:41;;;;;;;61.85;23.13;;;;;;;;;;4965741;28;20034;-60
2022/03/16 05:17:09;;;;;;;69.55;24.80;;;;;;;;;;4966599;28;20086;-60
2022/03/16 05:19:37;;;;;;;54.53;22.45;;;;;;;;;;4963487;28;20039;-60
2022/03/16 05:22:09;;;;;;;53.28;22.67;;;;;;;;;;4980484;28;20058;-60
2022/03/16 05:24:37;;;;;;;56.47;21.75;;;;;;;;;;4978358;28;20031;-59
2022/03/16 05:27:05;;;;;;;68.80;24.05;;;;;;;;;;4978096;28;21002;-60
2022/03/16 05:29:31;;;;;;;62.13;24.42;;;;;;;;;;4961749;28;20390;-60
2022/03/16 05:32:01;;;;;;;70.30;24.55;;;;;;;;;;4966108;28;20030;-60
2022/03/16 05:34:29;;;;;;;66.43;25.45;;;;;;;;;;4966932;28;21981;-60
2022/03/16 05:36:57;;;;;;;65.10;25.90;;;;;;;;;;4969609;28;21876;-60
2022/03/16 05:39:22;;;;;;;69.00;25.73;;;;;;;;;;4968554;28;20080;-60
2022/03/16 05:41:48;;;;;;;60.90;22.73;;;;;;;;;;4981111;28;20161;-60
2022/03/16 05:44:16;;;;;;;68.05;24.45;;;;;;;;;;4946383;28;20062;-59
2022/03/16 05:46:44;;;;;;;72.40;26.65;;;;;;;;;;4946764;28;20506;-60
2022/03/16 05:49:09;;;;;;;74.80;24.70;;;;;;;;;;4963300;28;20042;-60
2022/03/16 05:51:37;;;;;;;67.65;26.48;;;;;;;;;;4964874;28;20030;-59
2022/03/16 05:54:02;;;;;;;63.90;22.50;;;;;;;;;;4966887;28;20659;-59
2022/03/16 05:56:31;;;;;;;77.25;25.55;;;;;;;;;;4977383;28;20042;-59
2022/03/16 05:58:59;;;;;;;60.50;22.70;;;;;;;;;;4968742;28;20613;-60
2022/03/16 06:01:27;;;;;;;66.47;24.50;;;;;;;;;;4966449;28;20026;-59
2022/03/16 06:03:53;;;;;;;70.35;25.00;;;;;;;;;;4959686;28;20379;-60
2022/03/16 06:06:20;;;;;;;59.40;24.80;;;;;;;;;;4966645;28;20035;-60
2022/03/16 06:08:48;;;;;;;72.68;26.23;;;;;;;;;;4967025;28;20065;-60
2022/03/16 06:11:16;;;;;;;70.13;25.77;;;;;;;;;;4964322;28;20112;-61
2022/03/16 06:13:44;;;;;;;61.13;24.85;;;;;;;;;;4965380;28;20034;-60
2022/03/16 06:16:11;;;;;;;61.10;24.20;;;;;;;;;;4976421;28;20061;-61
2022/03/16 06:18:37;;;;;;;60.30;25.30;;;;;;;;;;4968503;28;20037;-59
2022/03/16 06:21:05;;;;;;;67.90;25.50;;;;;;;;;;4981415;28;20038;-59
2022/03/16 06:23:30;;;;;;;58.20;24.50;;;;;;;;;;4951777;28;20089;-60
2022/03/16 06:25:57;;;;;;;57.22;23.42;;;;;;;;;;4967188;28;20034;-60
2022/03/16 06:28:22;;;;;;;53.67;22.38;;;;;;;;;;4943258;28;20051;-59
2022/03/16 06:30:49;;;;;;;53.55;22.10;;;;;;;;;;4966330;28;20038;-60
2022/03/16 06:33:18;;;;;;;62.05;23.25;;;;;;;;;;4965185;28;20072;-62
2022/03/16 06:35:46;;;;;;;56.28;23.92;;;;;;;;;;4965466;28;20034;-59
2022/03/16 06:38:19;;;;;;;62.33;24.77;;;;;;;;;;4963494;28;20045;-60
2022/03/16 06:40:45;;;;;;;51.92;21.52;;;;;;;;;;4959948;28;20022;-60
2022/03/16 06:43:11;;;;;;;55.75;21.88;;;;;;;;;;4963627;28;20051;-60
2022/03/16 06:45:37;;;;;;;56.47;23.13;;;;;;;;;;4963438;28;20028;-60
2022/03/16 06:48:07;;;;;;;59.38;23.20;;;;;;;;;;4972811;28;20315;-59
2022/03/16 06:50:35;;;;;;;59.38;23.25;;;;;;;;;;4965495;28;20072;-59
2022/03/16 06:53:01;;;;;;;55.08;23.50;;;;;;;;;;4975411;28;20065;-59
2022/03/16 06:55:29;;;;;;;51.90;22.10;;;;;;;;;;4974309;28;20043;-59
2022/03/16 06:57:59;;;;;;;50.80;21.55;;;;;;;;;;4947048;28;20125;-59
2022/03/16 07:00:27;;;;;;;54.30;22.50;;;;;;;;;;4967488;28;20037;-59
2022/03/16 07:02:56;;;;;;;50.15;21.88;;;;;;;;;;4966089;28;20118;-62
2022/03/16 07:05:27;;;;;;;52.92;21.17;;;;;;;;;;4976493;28;20716;-61
2022/03/16 07:07:56;;;;;;;59.70;22.23;;;;;;;;;;4964108;28;20141;-60
2022/03/16 07:10:21;;;;;;;46.25;20.25;;;;;;;;;;4964758;28;20030;-61
2022/03/16 07:12:50;;;;;;;49.50;21.38;;;;;;;;;;4962820;28;20034;-60
2022/03/16 07:15:18;;;;;;;51.30;21.15;;;;;;;;;;4974758;28;20133;-60
2022/03/16 07:17:43;;;;;;;51.13;19.70;;;;;;;;;;4965348;28;20041;-60
2022/03/16 07:20:11;;;;;;;53.50;21.63;;;;;;;;;;4964907;28;20038;-61
2022/03/16 07:22:37;;;;;;;56.53;21.42;;;;;;;;;;4962744;28;20069;-61
2022/03/16 07:25:09;;;;;;;51.03;19.58;;;;;;;;;;4964822;28;20065;-60
2022/03/16 07:27:40;;;;;;;41.22;20.73;;;;;;;;;;4963405;28;20073;-60
2022/03/16 07:30:07;;;;;;;54.28;20.08;;;;;;;;;;4975122;28;20033;-61
2022/03/16 07:32:39;;;;;;;41.03;19.70;;;;;;;;;;4960679;28;20037;-61
2022/03/16 07:35:05;;;;;;;47.42;21.30;;;;;;;;;;4961441;28;20153;-59
2022/03/16 07:37:34;;;;;;;43.60;18.33;;;;;;;;;;4959724;28;20031;-59
2022/03/16 07:40:00;;;;;;;40.42;18.67;;;;;;;;;;4976114;28;20062;-60
2022/03/16 07:42:25;;;;;;;44.53;19.58;;;;;;;;;;4972050;28;20046;-59
2022/03/16 07:44:51;;;;;;;45.85;18.42;;;;;;;;;;4958220;28;20482;-60
2022/03/16 07:47:22;;;;;;;35.72;17.98;;;;;;;;;;4978768;28;21926;-60
2022/03/16 07:49:52;;;;;;;40.47;17.30;;;;;;;;;;4955803;28;21966;-60
2022/03/16 07:52:22;;;;;;;34.83;17.25;;;;;;;;;;4964205;28;20030;-60
2022/03/16 07:54:52;;;;;;;41.70;17.85;;;;;;;;;;4943094;28;20049;-60
2022/03/16 07:57:20;;;;;;;33.28;16.77;;;;;;;;;;4965305;28;20038;-60
2022/03/16 07:59:45;;;;;;;37.75;18.08;;;;;;;;;;4939159;28;20030;-60
2022/03/16 08:02:14;;;;;;;35.58;17.42;;;;;;;;;;4945864;28;20844;-60
2022/03/16 08:04:44;;;;;;;37.30;17.17;;;;;;;;;;4963577;28;20053;-59
2022/03/16 08:07:10;;;;;;;35.60;17.25;;;;;;;;;;4974909;28;20066;-60
2022/03/16 08:09:36;;;;;;;36.35;16.85;;;;;;;;;;4962459;28;20031;-59
2022/03/16 08:12:03;;;;;;;31.38;17.20;;;;;;;;;;4960410;28;20041;-59
2022/03/16 08:14:29;;;;;;;28.92;15.60;;;;;;;;;;4949881;28;20126;-59
2022/03/16 08:16:54;;;;;;;41.08;17.50;;;;;;;;;;4970680;28;20034;-59
2022/03/16 08:19:22;;;;;;;37.42;16.73;;;;;;;;;;4969069;28;20125;-61
2022/03/16 08:21:48;;;;;;;29.05;15.60;;;;;;;;;;4969620;28;20693;-60
2022/03/16 08:24:18;;;;;;;30.15;15.52;;;;;;;;;;4968118;28;20121;-60
2022/03/16 08:26:46;;;;;;;27.48;14.77;;;;;;;;;;4943214;28;20046;-60
2022/03/16 08:29:12;;;;;;;31.92;15.25;;;;;;;;;;4966272;28;20526;-60
2022/03/16 08:31:39;;;;;;;28.83;15.30;;;;;;;;;;4964172;28;20046;-60
2022/03/16 08:34:06;;;;;;;32.92;16.42;;;;;;;;;;4985212;28;20072;-60
2022/03/16 08:36:32;;;;;;;30.23;15.00;;;;;;;;;;4951638;28;20026;-60
2022/03/16 08:39:00;;;;;;;30.20;14.15;;;;;;;;;;4967366;28;20035;-60
2022/03/16 08:41:28;;;;;;;32.50;15.02;;;;;;;;;;4962421;28;20043;-61
2022/03/16 08:43:56;;;;;;;29.45;15.55;;;;;;;;;;4964452;28;20061;-59
2022/03/16 08:46:21;;;;;;;29.10;13.45;;;;;;;;;;4962724;28;20160;-59
2022/03/16 08:48:49;;;;;;;28.58;15.23;;;;;;;;;;4967191;28;20154;-59
2022/03/16 08:51:17;;;;;;;25.33;14.10;;;;;;;;;;4961209;28;20042;-60
2022/03/16 08:53:42;;;;;;;25.55;13.57;;;;;;;;;;4976772;28;20045;-61
2022/03/16 08:56:11;;;;;;;27.75;13.90;;;;;;;;;;4961750;28;21771;-61
2022/03/16 08:58:37;;;;;;;27.95;13.80;;;;;;;;;;4973375;28;20038;-60
2022/03/16 09:01:05;;;;;;;28.20;15.80;;;;;;;;;;4966157;28;20026;-63
2022/03/16 09:03:36;;;;;;;25.35;13.55;;;;;;;;;;4969376;28;20038;-59
2022/03/16 09:06:04;;;;;;;23.65;14.02;;;;;;;;;;4968206;28;20042;-59
2022/03/16 09:08:31;;;;;;;25.58;14.63;;;;;;;;;;4965235;28;20045;-59
2022/03/16 09:10:57;;;;;;;26.48;13.70;;;;;;;;;;4956789;28;20038;-58
2022/03/16 09:13:27;;;;;;;27.88;14.88;;;;;;;;;;4958850;28;20034;-59
2022/03/16 09:15:52;;;;;;;25.85;13.55;;;;;;;;;;4974392;28;21048;-61
2022/03/16 09:18:20;;;;;;;30.17;13.55;;;;;;;;;;4966440;28;20080;-60
2022/03/16 09:20:48;;;;;;;25.60;11.93;;;;;;;;;;4965432;28;20670;-60
2022/03/16 09:23:16;;;;;;;23.73;12.05;;;;;;;;;;4965673;28;20093;-62
2022/03/16 09:25:46;;;;;;;28.73;13.18;;;;;;;;;;4963235;28;20455;-61
2022/03/16 09:28:14;;;;;;;26.17;12.95;;;;;;;;;;4981122;28;20030;-61
2022/03/16 09:30:39;;;;;;;23.85;12.50;;;;;;;;;;4946534;28;20044;-60
2022/03/16 09:33:05;;;;;;;27.08;11.63;;;;;;;;;;4965551;28;20053;-59
2022/03/16 09:35:33;;;;;;;22.95;11.63;;;;;;;;;;4959435;28;20061;-60
2022/03/16 09:37:58;;;;;;;23.90;12.40;;;;;;;;;;4966442;28;20035;-59
2022/03/16 09:40:26;;;;;;;24.35;12.80;;;;;;;;;;4960152;28;20058;-60
2022/03/16 09:42:57;;;;;;;23.85;12.70;;;;;;;;;;4960690;28;20038;-59
2022/03/16 09:45:27;;;;;;;24.35;12.02;;;;;;;;;;4976447;28;20069;-61
2022/03/16 09:47:53;;;;;;;20.42;11.70;;;;;;;;;;4965053;28;20038;-61
2022/03/16 09:50:21;;;;;;;21.00;10.85;;;;;;;;;;4980977;28;20038;-61
2022/03/16 09:52:50;;;;;;;22.50;10.90;;;;;;;;;;4968532;28;20540;-61
2022/03/16 09:55:20;;;;;;;24.08;10.23;;;;;;;;;;4965917;28;20041;-62
2022/03/16 09:57:47;;;;;;;24.13;10.45;;;;;;;;;;4948579;28;20093;-60
2022/03/16 10:00:19;;;;;;;23.58;10.13;;;;;;;;;;4962845;28;20038;-59
2022/03/16 10:02:44;;;;;;;18.75;9.40;;;;;;;;;;4960563;28;20049;-61
2022/03/16 10:05:12;;;;;;;17.75;10.52;;;;;;;;;;4973523;28;20055;-61
2022/03/16 10:07:43;;;;;;;14.57;7.90;;;;;;;;;;4965824;28;21338;-61
2022/03/16 10:13:16;;;;;;;13.07;8.32;;;;;;;;;;4962807;28;20038;-62
2022/03/16 10:15:44;;;;;;;16.02;8.63;;;;;;;;;;4978526;28;20042;-60
2022/03/16 10:18:12;;;;;;;13.93;8.27;;;;;;;;;;4960694;28;20442;-62
2022/03/16 10:20:39;;;;;;;16.55;7.75;;;;;;;;;;4961956;28;20149;-62
2022/03/16 10:23:05;;;;;;;13.77;7.07;;;;;;;;;;4968480;28;20053;-61
2022/03/16 10:25:40;;;;;;;10.48;6.35;;;;;;;;;;4968660;28;20569;-61
2022/03/16 10:28:12;;;;;;;13.15;7.07;;;;;;;;;;4969184;28;20057;-60
2022/03/16 10:30:39;;;;;;;10.65;6.55;;;;;;;;;;4967749;28;20034;-62
2022/03/16 10:33:07;;;;;;;14.68;7.75;;;;;;;;;;4980961;28;20030;-62
2022/03/16 10:35:33;;;;;;;11.40;6.97;;;;;;;;;;4981178;28;20030;-60
2022/03/16 10:38:11;;;;;;;12.00;7.95;;;;;;;;;;4962025;28;20117;-61
2022/03/16 10:40:39;;;;;;;11.18;6.25;;;;;;;;;;4969811;28;20084;-61
2022/03/16 10:49:03;;;;;;;13.75;6.28;;;;;;;;;;4968283;28;20109;-61
2022/03/16 10:51:28;;;;;;;12.82;7.03;;;;;;;;;;4981879;28;20462;-61
2022/03/16 10:53:54;;;;;;;14.32;6.97;;;;;;;;;;4969092;28;20038;-61
2022/03/16 10:56:23;;;;;;;20.42;7.57;;;;;;;;;;4968569;28;20117;-61
2022/03/16 10:58:52;;;;;;;13.45;7.82;;;;;;;;;;4969376;28;20418;-61
2022/03/16 11:01:19;;;;;;;13.60;7.53;;;;;;;;;;4977001;28;20136;-61
2022/03/16 11:03:47;;;;;;;15.93;7.70;;;;;;;;;;4969651;28;20316;-62
2022/03/16 11:06:16;;;;;;;13.15;6.80;;;;;;;;;;4983596;28;20434;-62
2022/03/16 11:08:44;;;;;;;12.45;6.45;;;;;;;;;;4967247;28;20811;-64
2022/03/16 11:14:03;;;;;;;10.75;6.40;;;;;;;;;;4966581;28;20030;-65
2022/03/16 11:16:31;;;;;;;12.20;6.50;;;;;;;;;;4966134;28;20113;-61
2022/03/16 11:19:02;;;;;;;9.77;6.30;;;;;;;;;;4969087;28;20042;-63
2022/03/16 11:21:35;;;;;;;9.98;6.38;;;;;;;;;;4966363;28;20557;-61
2022/03/16 11:24:16;;;;;;;10.85;6.00;;;;;;;;;;4968332;28;20042;-62
2022/03/16 11:27:01;;;;;;;12.95;6.38;;;;;;;;;;4978077;28;20022;-63
2022/03/16 11:29:34;;;;;;;10.13;6.10;;;;;;;;;;4967257;28;20038;-66
2022/03/16 11:32:12;;;;;;;11.23;6.90;;;;;;;;;;4977135;28;20026;-64
2022/03/16 11:34:38;;;;;;;13.48;6.60;;;;;;;;;;4982350;28;20031;-62
2022/03/16 11:37:10;;;;;;;11.25;6.95;;;;;;;;;;4965860;28;20062;-62
2022/03/16 11:39:45;;;;;;;12.75;7.03;;;;;;;;;;4968201;28;20054;-62
2022/03/16 11:42:14;;;;;;;14.57;6.95;;;;;;;;;;4967112;28;20378;-62
2022/03/16 11:44:40;;;;;;;11.07;6.38;;;;;;;;;;4967984;28;20731;-62
2022/03/16 11:47:09;;;;;;;12.95;6.93;;;;;;;;;;4962058;28;20165;-62
2022/03/16 11:49:38;;;;;;;11.88;7.30;;;;;;;;;;4971931;28;20026;-61
2022/03/16 11:52:04;;;;;;;12.00;6.95;;;;;;;;;;4970469;28;21912;-61
2022/03/16 11:54:53;;;;;;;11.13;6.40;;;;;;;;;;4972632;28;20030;-61
2022/03/16 11:57:38;;;;;;;10.38;6.13;;;;;;;;;;4970209;28;20117;-60
2022/03/16 12:00:14;;;;;;;11.57;6.03;;;;;;;;;;4965926;28;20050;-62
2022/03/16 12:02:42;;;;;;;10.27;6.25;;;;;;;;;;4970855;28;20046;-61
2022/03/16 12:05:12;;;;;;;15.10;6.53;;;;;;;;;;4969984;28;20137;-61
2022/03/16 12:07:37;;;;;;;11.95;7.32;;;;;;;;;;4969704;28;20089;-61
2022/03/16 12:10:10;;;;;;;12.43;6.40;;;;;;;;;;4970537;28;20042;-61
2022/03/16 12:12:54;;;;;;;10.87;6.40;;;;;;;;;;4979580;28;20035;-62
2022/03/16 12:15:37;;;;;;;19.60;6.50;;;;;;;;;;4970386;28;20094;-61
2022/03/16 12:18:11;;;;;;;8.05;5.65;;;;;;;;;;4971689;28;20509;-62
2022/03/16 12:20:44;;;;;;;7.40;5.50;;;;;;;;;;4987304;28;20054;-62
2022/03/16 12:23:30;;;;;;;11.80;6.00;;;;;;;;;;4971924;28;20082;-61
2022/03/16 12:25:58;;;;;;;9.75;5.70;;;;;;;;;;4965460;28;20042;-60
2022/03/16 12:31:30;;;;;;;9.18;5.65;;;;;;;;;;4967824;28;20073;-60
2022/03/16 12:33:59;;;;;;;9.35;5.97;;;;;;;;;;4969373;28;20077;-61
2022/03/16 12:36:29;;;;;;;9.50;5.32;;;;;;;;;;4968455;28;20359;-60
2022/03/16 12:39:01;;;;;;;12.75;6.25;;;;;;;;;;4971762;28;20413;-60
2022/03/16 12:44:15;;;;;;;6.60;4.68;;;;;;;;;;4971009;28;20038;-60
2022/03/16 12:46:42;;;;;;;12.85;6.05;;;;;;;;;;4980209;28;20033;-60
2022/03/16 12:49:16;;;;;;;18.00;7.25;;;;;;;;;;4969843;28;20100;-60
2022/03/16 12:51:48;;;;;;;14.98;7.22;;;;;;;;;;4969681;28;22016;-62
2022/03/16 12:54:20;;;;;;;14.50;6.72;;;;;;;;;;4985258;28;20442;-61
2022/03/16 12:56:51;;;;;;;11.27;6.55;;;;;;;;;;4969810;28;20053;-62
2022/03/16 12:59:26;;;;;;;11.63;6.80;;;;;;;;;;4969798;28;20611;-62
2022/03/16 13:01:54;;;;;;;12.15;6.85;;;;;;;;;;4971036;28;20034;-64
2022/03/16 13:04:22;;;;;;;11.55;5.97;;;;;;;;;;4972008;28;20043;-60
2022/03/16 13:06:59;;;;;;;12.43;6.18;;;;;;;;;;4970671;28;20038;-61
2022/03/16 13:09:35;;;;;;;13.60;6.65;;;;;;;;;;4970458;28;20038;-61
2022/03/16 13:12:08;;;;;;;11.07;6.15;;;;;;;;;;4980513;28;20049;-62
2022/03/16 13:14:36;;;;;;;9.55;5.90;;;;;;;;;;4979130;28;20030;-61
2022/03/16 13:17:04;;;;;;;11.35;5.97;;;;;;;;;;4968269;28;20018;-60
2022/03/16 13:19:33;;;;;;;8.80;5.80;;;;;;;;;;4968581;28;20494;-61
2022/03/16 13:22:03;;;;;;;10.48;5.95;;;;;;;;;;4971096;28;20109;-62
2022/03/16 13:24:38;;;;;;;9.70;6.38;;;;;;;;;;4966397;28;20125;-61
2022/03/16 13:27:09;;;;;;;11.27;6.57;;;;;;;;;;4969097;28;20096;-63
2022/03/16 13:29:38;;;;;;;9.15;6.38;;;;;;;;;;4962846;28;20053;-61
2022/03/16 13:32:07;;;;;;;10.85;6.22;;;;;;;;;;4985020;28;20034;-61
2022/03/16 13:34:37;;;;;;;12.50;6.65;;;;;;;;;;4975985;28;20022;-62
2022/03/16 13:37:23;;;;;;;9.25;5.82;;;;;;;;;;4964009;28;20034;-61
2022/03/16 13:39:49;;;;;;;;;;;;;;;;;;4959359;28;20092;-60
2022/03/16 13:42:15;;;;;;;;;;;;;;;;;;4968809;28;19914;-61
2022/03/16 13:44:40;;;;;;;;;;;;;;;;;;4968536;28;19917;-60
2022/03/16 13:47:05;;;;;;;;;;;;;;;;;;4966841;28;19914;-61
2022/03/16 13:49:31;;;;;;;;;;;;;;;;;;4968842;28;19929;-61
2022/03/16 13:51:59;;;;;;;;;;;;;;;;;;4981883;28;20652;-63
2022/03/16 13:54:24;;;;;;;;;;;;;;;;;;4967361;28;19929;-61
2022/03/16 13:56:52;;;;;;;;;;;;;;;;;;4967993;28;19949;-60
2022/03/16 13:59:20;;;;;;;;;;;;;;;;;;4967522;28;19918;-62
2022/03/16 14:01:45;;;;;;;;;;;;;;;;;;4967524;28;19956;-61
2022/03/16 14:04:11;;;;;;;;;;;;;;;;;;4968088;28;19918;-62
2022/03/16 14:06:36;;;;;;;;;;;;;;;;;;4961077;28;20321;-60
2022/03/16 14:09:05;;;;;;;;;;;;;;;;;;4961290;28;22027;-62
2022/03/16 14:11:30;;;;;;;;;;;;;;;;;;4960498;28;19920;-63
2022/03/16 14:13:55;;;;;;;;;;;;;;;;;;4968400;28;20660;-64
2022/03/16 14:16:21;;;;;;;;;;;;;;;;;;4982809;28;21201;-64
2022/03/16 14:18:47;;;;;;;;;;;;;;;;;;4968334;28;20546;-62
2022/03/16 14:21:14;;;;;;;;;;;;;;;;;;4976658;28;19921;-63
2022/03/16 14:23:40;;;;;;;;;;;;;;;;;;4982099;28;19922;-61
2022/03/16 14:26:05;;;;;;;;;;;;;;;;;;4978334;28;19917;-63
2022/03/16 14:28:32;;;;;;;;;;;;;;;;;;4966215;28;19949;-62
2022/03/16 14:30:57;;;;;;;;;;;;;;;;;;4966383;28;19917;-60
2022/03/16 14:33:23;;;;;;;;;;;;;;;;;;4968153;28;19959;-63
2022/03/16 14:35:50;;;;;;;;;;;;;;;;;;4983896;28;20012;-61
2022/03/16 14:38:18;;;;;;;;;;;;;;;;;;4960978;28;21797;-61
2022/03/16 14:40:43;;;;;;;;;;;;;;;;;;4966739;28;19921;-65
2022/03/16 14:43:09;;;;;;;;;;;;;;;;;;4967425;28;20031;-60
2022/03/16 14:45:34;;;;;;;;;;;;;;;;;;4966296;28;20370;-60
2022/03/16 14:48:02;;;;;;;;;;;;;;;;;;4968445;28;19914;-61
2022/03/16 14:50:30;;;;;;;;;;;;;;;;;;4961064;28;20414;-60
2022/03/16 14:52:56;;;;;;;;;;;;;;;;;;4965770;28;19968;-60